Time;durP1;ratioP1;P1;durP2;ratioP2;P2;SDS_P1;SDS_P2;PMS_P1;PMS_P2;Temp;Humidity;BMP_temperature;BMP_pressure;BME280_temperature;BME280_humidity;BME280_pressure;Samples;Min_cycle;Max_cycle;Signal;HPM_P1;HPM_P2
2023/07/01 00:01:24;;;;;;;;;;;;;;;22.35;28.26;97524.94;4960561;28;1125;-76
2023/07/01 00:03:50;;;;;;;;;;;;;;;22.44;28.56;97531.94;4976465;28;1208;-76
2023/07/01 00:06:15;;;;;;;;;;;;;;;22.42;28.56;97534.44;4960926;28;1129;-75
2023/07/01 00:08:41;;;;;;;;;;;;;;;22.14;28.73;97534.25;4958821;28;1419;-75
2023/07/01 00:11:07;;;;;;;;;;;;;;;22.40;28.57;97531.28;4960853;28;900;-77
2023/07/01 00:13:32;;;;;;;;;;;;;;;22.59;28.11;97527.31;4954250;28;1577;-75
2023/07/01 00:15:58;;;;;;;;;;;;;;;22.65;28.22;97530.34;4960591;28;925;-76
2023/07/01 00:18:23;;;;;;;;;;;;;;;22.59;28.36;97533.78;4967052;28;1965;-76
2023/07/01 00:20:49;;;;;;;;;;;;;;;22.41;28.50;97535.69;4979848;28;913;-75
2023/07/01 00:23:15;;;;;;;;;;;;;;;22.27;28.61;97526.47;4963314;28;1144;-76
2023/07/01 00:25:40;;;;;;;;;;;;;;;22.54;28.36;97519.41;4995730;28;978;-75
2023/07/01 00:28:06;;;;;;;;;;;;;;;22.38;28.72;97528.09;5034449;28;1295;-76
2023/07/01 00:30:32;;;;;;;;;;;;;;;22.41;28.56;97522.31;5019009;28;1138;-76
2023/07/01 00:32:57;;;;;;;;;;;;;;;22.41;28.39;97524.34;5035894;28;1294;-76
2023/07/01 00:35:23;;;;;;;;;;;;;;;22.41;28.50;97521.53;5036922;28;800;-76
2023/07/01 00:37:49;;;;;;;;;;;;;;;22.43;28.38;97519.78;4995864;28;1973;-76
2023/07/01 00:40:15;;;;;;;;;;;;;;;22.51;28.34;97517.50;4995428;28;930;-75
2023/07/01 00:42:40;;;;;;;;;;;;;;;22.55;28.10;97507.59;4976244;28;1155;-76
2023/07/01 00:45:06;;;;;;;;;;;;;;;22.45;28.39;97508.00;4959964;28;1383;-75
2023/07/01 00:47:32;;;;;;;;;;;;;;;22.30;28.42;97513.41;4975679;28;1339;-77
2023/07/01 00:49:57;;;;;;;;;;;;;;;22.34;28.70;97514.09;4943322;28;1348;-75
2023/07/01 00:52:24;;;;;;;;;;;;;;;22.22;28.63;97515.72;4944085;28;1196;-75
2023/07/01 00:54:50;;;;;;;;;;;;;;;22.54;28.46;97520.19;4959606;28;1084;-75
2023/07/01 00:57:15;;;;;;;;;;;;;;;22.29;28.61;97518.31;4959802;28;1963;-76
2023/07/01 00:59:40;;;;;;;;;;;;;;;22.43;28.46;97513.34;4958454;28;1566;-75
2023/07/01 01:02:08;;;;;;;;;;;;;;;22.62;28.14;97520.72;4940663;29;1138;-76
2023/07/01 01:04:44;;;;;;;;;;;;;;;22.52;28.07;97510.56;4940722;29;890;-76
2023/07/01 01:07:21;;;;;;;;;;;;;;;22.56;28.24;97514.06;4940884;29;1102;-75
2023/07/01 01:09:55;;;;;;;;;;;;;;;22.48;28.26;97504.22;4969399;28;1423;-75
2023/07/01 01:12:21;;;;;;;;;;;;;;;22.44;28.23;97509.28;4956112;29;1179;-76
2023/07/01 01:14:46;;;;;;;;;;;;;;;22.25;28.47;97509.13;4949135;28;1125;-76
2023/07/01 01:17:12;;;;;;;;;;;;;;;22.43;28.27;97502.00;4962941;28;1899;-75
2023/07/01 01:19:45;;;;;;;;;;;;;;;22.16;28.63;97499.78;4946382;28;1402;-76
2023/07/01 01:22:26;;;;;;;;;;;;;;;22.37;28.57;97510.31;4959632;28;1286;-76
2023/07/01 01:24:53;;;;;;;;;;;;;;;22.09;28.79;97503.63;4960048;28;868;-76
2023/07/01 01:27:22;;;;;;;;;;;;;;;22.41;28.25;97510.19;4937434;29;958;-75
2023/07/01 01:29:47;;;;;;;;;;;;;;;22.31;28.27;97500.81;4936100;29;1418;-75
2023/07/01 01:32:13;;;;;;;;;;;;;;;22.36;28.33;97503.84;4937078;29;1216;-77
2023/07/01 01:34:38;;;;;;;;;;;;;;;22.31;28.52;97500.81;4936911;29;881;-76
2023/07/01 01:37:05;;;;;;;;;;;;;;;22.27;28.34;97508.66;4937334;29;1911;-75
2023/07/01 01:39:31;;;;;;;;;;;;;;;22.33;28.47;97499.13;4920429;29;1575;-75
2023/07/01 01:41:56;;;;;;;;;;;;;;;22.48;28.11;97507.06;4937371;29;1271;-75
2023/07/01 01:44:25;;;;;;;;;;;;;;;22.30;28.28;97505.72;4976232;28;902;-76
2023/07/01 01:46:51;;;;;;;;;;;;;;;22.10;28.75;97497.53;4979175;28;882;-75
2023/07/01 01:49:16;;;;;;;;;;;;;;;22.23;28.43;97493.84;4978326;28;1441;-75
2023/07/01 01:51:42;;;;;;;;;;;;;;;22.07;28.90;97489.94;4963154;28;1120;-75
2023/07/01 01:54:08;;;;;;;;;;;;;;;22.14;28.71;97490.94;4962981;28;1241;-76
2023/07/01 01:56:33;;;;;;;;;;;;;;;22.25;28.60;97497.00;4958761;29;1907;-76
2023/07/01 01:58:59;;;;;;;;;;;;;;;22.43;28.37;97493.50;4959584;29;1276;-76
2023/07/01 02:01:25;;;;;;;;;;;;;;;22.45;28.44;97488.16;4948068;29;1152;-75
2023/07/01 02:03:51;;;;;;;;;;;;;;;22.45;28.42;97488.16;4948309;28;1109;-75
2023/07/01 02:06:16;;;;;;;;;;;;;;;22.28;28.34;97482.72;4965891;28;1469;-76
2023/07/01 02:08:41;;;;;;;;;;;;;;;22.20;28.70;97489.09;4961969;28;1688;-75
2023/07/01 02:11:07;;;;;;;;;;;;;;;22.39;28.50;97495.69;4978747;28;890;-75
2023/07/01 02:13:33;;;;;;;;;;;;;;;22.25;28.37;97497.78;4939587;29;922;-75
2023/07/01 02:15:59;;;;;;;;;;;;;;;22.24;28.63;97496.22;4940502;29;1059;-76
2023/07/01 02:18:24;;;;;;;;;;;;;;;22.17;28.74;97485.13;4957287;29;1989;-76
2023/07/01 02:20:50;;;;;;;;;;;;;;;22.24;28.46;97489.75;4943280;29;893;-76
2023/07/01 02:23:15;;;;;;;;;;;;;;;22.43;28.28;97499.16;4961752;28;1010;-75
2023/07/01 02:25:41;;;;;;;;;;;;;;;22.41;28.24;97493.19;4962715;28;1205;-75
2023/07/01 02:28:07;;;;;;;;;;;;;;;22.42;28.33;97495.53;4958582;29;1358;-75
2023/07/01 02:30:34;;;;;;;;;;;;;;;22.47;28.11;97502.66;4958740;29;962;-76
2023/07/01 02:33:00;;;;;;;;;;;;;;;22.34;28.07;97489.34;4974730;28;1202;-76
2023/07/01 02:35:25;;;;;;;;;;;;;;;22.07;28.76;97498.44;4971964;28;1211;-76
2023/07/01 02:37:51;;;;;;;;;;;;;;;22.66;27.73;97498.69;4994568;28;1918;-76
2023/07/01 02:40:17;;;;;;;;;;;;;;;22.51;28.10;97497.66;4984710;28;1223;-75
2023/07/01 02:42:43;;;;;;;;;;;;;;;22.17;28.40;97504.97;5000806;28;1264;-76
2023/07/01 02:45:08;;;;;;;;;;;;;;;22.41;28.08;97504.50;5031808;28;894;-75
2023/07/01 02:47:34;;;;;;;;;;;;;;;22.36;27.91;97508.72;5043557;28;1517;-75
2023/07/01 02:50:00;;;;;;;;;;;;;;;22.33;28.26;97504.00;5024735;28;1558;-76
2023/07/01 02:52:26;;;;;;;;;;;;;;;22.34;28.07;97506.38;5020656;28;1164;-76
2023/07/01 02:54:52;;;;;;;;;;;;;;;22.17;28.49;97512.69;4987627;28;1350;-76
2023/07/01 02:57:17;;;;;;;;;;;;;;;22.30;28.05;97517.03;5019897;28;1910;-76
2023/07/01 02:59:43;;;;;;;;;;;;;;;22.25;28.26;97514.81;5001766;28;1527;-75
2023/07/01 03:02:09;;;;;;;;;;;;;;;22.36;27.88;97506.69;5017779;28;1127;-76
2023/07/01 03:04:35;;;;;;;;;;;;;;;22.18;28.09;97511.44;5017603;28;1487;-76
2023/07/01 03:07:00;;;;;;;;;;;;;;;22.16;28.54;97516.78;5019122;28;903;-75
2023/07/01 03:09:27;;;;;;;;;;;;;;;22.25;28.23;97503.47;5001110;28;1222;-75
2023/07/01 03:11:53;;;;;;;;;;;;;;;22.30;28.33;97502.09;5001815;28;1238;-76
2023/07/01 03:14:19;;;;;;;;;;;;;;;22.36;28.13;97505.91;5017781;28;901;-76
2023/07/01 03:16:44;;;;;;;;;;;;;;;22.23;28.31;97505.97;5012624;28;1894;-76
2023/07/01 03:19:10;;;;;;;;;;;;;;;22.12;28.52;97501.94;4980034;28;1347;-76
2023/07/01 03:21:35;;;;;;;;;;;;;;;22.24;28.60;97501.88;4964509;28;1242;-76
2023/07/01 03:24:01;;;;;;;;;;;;;;;22.48;27.99;97499.34;4948518;28;1284;-75
2023/07/01 03:26:27;;;;;;;;;;;;;;;22.64;27.66;97501.19;4996545;28;1303;-76
2023/07/01 03:28:53;;;;;;;;;;;;;;;22.38;28.16;97509.03;4983450;28;1254;-75
2023/07/01 03:31:21;;;;;;;;;;;;;;;22.16;28.77;97522.44;4999573;28;1439;-75
2023/07/01 03:33:46;;;;;;;;;;;;;;;22.39;28.22;97512.69;4999171;28;1003;-76
2023/07/01 03:36:12;;;;;;;;;;;;;;;22.38;28.41;97517.56;4959951;28;1340;-76
2023/07/01 03:38:37;;;;;;;;;;;;;;;22.31;28.33;97512.94;4960624;28;964;-76
2023/07/01 03:41:03;;;;;;;;;;;;;;;22.07;28.92;97504.09;4922350;29;917;-76
2023/07/01 03:43:28;;;;;;;;;;;;;;;22.20;28.70;97506.88;4922810;29;1363;-76
2023/07/01 03:45:54;;;;;;;;;;;;;;;22.21;28.82;97511.31;4880000;29;1580;-76
2023/07/01 03:48:20;;;;;;;;;;;;;;;22.35;28.34;97518.50;4896263;29;1605;-76
2023/07/01 03:50:45;;;;;;;;;;;;;;;22.07;29.08;97511.78;4853712;29;1316;-75
2023/07/01 03:53:11;;;;;;;;;;;;;;;22.31;28.55;97512.94;4899571;29;1240;-76
2023/07/01 03:55:36;;;;;;;;;;;;;;;22.38;28.48;97511.09;4884264;29;1275;-76
2023/07/01 03:58:02;;;;;;;;;;;;;;;22.05;29.09;97509.41;4899248;29;1923;-77
2023/07/01 04:00:28;;;;;;;;;;;;;;;22.27;28.62;97512.28;4853317;29;1289;-77
2023/07/01 04:02:54;;;;;;;;;;;;;;;22.22;28.64;97517.75;4884252;29;1273;-76
2023/07/01 04:05:19;;;;;;;;;;;;;;;22.21;28.72;97514.13;4883270;29;1296;-77
2023/07/01 04:07:46;;;;;;;;;;;;;;;22.04;29.12;97513.50;4939729;29;1233;-76
2023/07/01 04:10:11;;;;;;;;;;;;;;;22.23;28.96;97516.53;4940149;29;1306;-76
2023/07/01 04:12:37;;;;;;;;;;;;;;;22.33;28.56;97516.13;4993103;28;1255;-76
2023/07/01 04:15:09;;;;;;;;;;;;;;;22.54;28.49;97514.53;4972482;28;1328;-76
2023/07/01 04:17:44;;;;;;;;;;;;;;;22.34;28.88;97509.19;5003291;28;1990;-76
2023/07/01 04:20:10;;;;;;;;;;;;;;;22.37;28.49;97510.31;4994148;28;1311;-76
2023/07/01 04:22:36;;;;;;;;;;;;;;;22.29;28.98;97512.63;5025676;28;1175;-76
2023/07/01 04:25:02;;;;;;;;;;;;;;;22.39;28.69;97512.69;5004348;28;1306;-76
2023/07/01 04:27:28;;;;;;;;;;;;;;;22.38;28.66;97509.03;5005625;28;1341;-76
2023/07/01 04:29:53;;;;;;;;;;;;;;;22.57;28.72;97513.59;5000878;28;1245;-77
2023/07/01 04:32:19;;;;;;;;;;;;;;;22.67;28.32;97517.28;4989091;28;1282;-76
2023/07/01 04:34:44;;;;;;;;;;;;;;;22.46;28.62;97515.25;4990677;28;1278;-76
2023/07/01 04:37:10;;;;;;;;;;;;;;;22.36;28.70;97515.19;4928600;29;1899;-76
2023/07/01 04:39:35;;;;;;;;;;;;;;;22.41;28.72;97522.31;4915397;29;1331;-76
2023/07/01 04:42:02;;;;;;;;;;;;;;;22.35;29.24;97530.63;4947342;29;1326;-76
2023/07/01 04:44:28;;;;;;;;;;;;;;;22.51;28.83;97526.00;4937554;29;1032;-76
2023/07/01 04:46:53;;;;;;;;;;;;;;;22.38;29.10;97525.28;4956768;29;968;-76
2023/07/01 04:49:19;;;;;;;;;;;;;;;22.28;29.39;97525.22;4956484;29;851;-76
2023/07/01 04:51:44;;;;;;;;;;;;;;;22.38;28.95;97528.09;4940603;29;985;-76
2023/07/01 04:54:10;;;;;;;;;;;;;;;22.37;29.07;97513.16;4940300;29;958;-76
2023/07/01 04:56:35;;;;;;;;;;;;;;;22.61;28.64;97519.13;4971093;28;1971;-76
2023/07/01 04:59:01;;;;;;;;;;;;;;;22.37;29.10;97515.97;4975681;28;809;-76
2023/07/01 05:01:27;;;;;;;;;;;;;;;22.31;29.49;97521.44;4976049;28;889;-75
2023/07/01 05:03:52;;;;;;;;;;;;;;;22.51;28.90;97514.66;4975434;28;963;-76
2023/07/01 05:06:18;;;;;;;;;;;;;;;22.57;28.88;97521.31;4976091;28;905;-76
2023/07/01 05:08:44;;;;;;;;;;;;;;;22.65;28.56;97525.47;5005885;28;1084;-76
2023/07/01 05:11:09;;;;;;;;;;;;;;;22.78;28.58;97506.28;5015499;28;914;-76
2023/07/01 05:13:35;;;;;;;;;;;;;;;22.66;28.86;97521.38;5015392;28;994;-76
2023/07/01 05:16:00;;;;;;;;;;;;;;;22.55;28.99;97516.09;5015640;28;839;-76
2023/07/01 05:18:26;;;;;;;;;;;;;;;22.58;28.84;97520.03;5018249;28;1906;-76
2023/07/01 05:20:52;;;;;;;;;;;;;;;22.61;28.81;97521.97;5019681;28;918;-76
2023/07/01 05:23:17;;;;;;;;;;;;;;;22.63;28.92;97516.59;5020661;28;901;-75
2023/07/01 05:25:43;;;;;;;;;;;;;;;22.60;28.91;97524.00;5020800;28;870;-75
2023/07/01 05:28:08;;;;;;;;;;;;;;;22.43;29.49;97514.13;5003011;28;938;-75
2023/07/01 05:30:34;;;;;;;;;;;;;;;22.47;29.50;97525.34;5020427;28;1010;-75
2023/07/01 05:32:59;;;;;;;;;;;;;;;22.57;29.21;97526.97;5019417;28;1215;-76
2023/07/01 05:35:25;;;;;;;;;;;;;;;22.15;29.77;97527.31;4998725;28;858;-75
2023/07/01 05:37:51;;;;;;;;;;;;;;;22.49;29.31;97528.53;4998704;28;2006;-76
2023/07/01 05:40:17;;;;;;;;;;;;;;;22.54;29.34;97530.75;4982181;28;949;-75
2023/07/01 05:42:43;;;;;;;;;;;;;;;22.60;29.01;97528.91;4982386;28;871;-75
2023/07/01 05:45:09;;;;;;;;;;;;;;;22.64;29.02;97526.72;4982112;28;905;-76
2023/07/01 05:47:35;;;;;;;;;;;;;;;22.55;29.37;97521.00;4982617;28;980;-76
2023/07/01 05:50:00;;;;;;;;;;;;;;;22.56;29.08;97528.25;4982252;28;862;-76
2023/07/01 05:52:26;;;;;;;;;;;;;;;22.41;29.37;97521.53;4959642;29;919;-75
2023/07/01 05:54:52;;;;;;;;;;;;;;;22.53;29.30;97518.59;4943408;29;986;-76
2023/07/01 05:57:18;;;;;;;;;;;;;;;22.30;29.86;97517.03;4959411;28;1977;-76
2023/07/01 05:59:43;;;;;;;;;;;;;;;22.54;29.50;97516.59;4943600;29;815;-75
2023/07/01 06:02:09;;;;;;;;;;;;;;;22.60;29.08;97512.69;4927589;29;969;-76
2023/07/01 06:04:34;;;;;;;;;;;;;;;22.87;28.98;97514.84;4943293;29;781;-75
2023/07/01 06:07:00;;;;;;;;;;;;;;;22.57;29.45;97526.97;4988384;28;928;-75
2023/07/01 06:09:25;;;;;;;;;;;;;;;22.50;29.53;97528.03;4997968;28;1125;-75
2023/07/01 06:11:52;;;;;;;;;;;;;;;22.48;29.46;97522.03;4981700;28;904;-76
2023/07/01 06:14:18;;;;;;;;;;;;;;;22.58;29.59;97520.03;4981586;28;982;-76
2023/07/01 06:16:43;;;;;;;;;;;;;;;22.66;29.19;97526.25;4998395;28;1989;-75
2023/07/01 06:19:09;;;;;;;;;;;;;;;22.72;29.16;97521.56;4965379;28;1018;-75
2023/07/01 06:21:34;;;;;;;;;;;;;;;22.48;29.38;97526.91;4965854;28;1185;-75
2023/07/01 06:24:00;;;;;;;;;;;;;;;22.59;29.35;97527.31;4991667;28;754;-76
2023/07/01 06:26:25;;;;;;;;;;;;;;;22.38;29.72;97522.44;5019621;28;868;-76
2023/07/01 06:28:51;;;;;;;;;;;;;;;22.35;29.99;97527.78;5018173;28;879;-76
2023/07/01 06:31:17;;;;;;;;;;;;;;;22.41;29.57;97521.53;5019922;28;973;-76
2023/07/01 06:33:44;;;;;;;;;;;;;;;22.66;29.61;97521.38;5001919;28;1139;-76
2023/07/01 06:36:09;;;;;;;;;;;;;;;22.40;29.69;97515.06;5002043;28;977;-75
2023/07/01 06:38:35;;;;;;;;;;;;;;;22.67;29.41;97517.28;5018143;28;1977;-76
2023/07/01 06:41:00;;;;;;;;;;;;;;;22.53;29.59;97512.13;5018276;28;1072;-75
2023/07/01 06:43:26;;;;;;;;;;;;;;;22.27;30.20;97520.78;5017818;28;939;-76
2023/07/01 06:45:51;;;;;;;;;;;;;;;22.56;29.70;97512.00;5018149;28;925;-76
2023/07/01 06:48:17;;;;;;;;;;;;;;;22.68;29.53;97516.00;5017698;28;875;-76
2023/07/01 06:50:42;;;;;;;;;;;;;;;22.82;29.17;97509.78;5000484;28;1376;-76
2023/07/01 06:53:08;;;;;;;;;;;;;;;22.69;29.47;97509.09;4984175;28;1155;-75
2023/07/01 06:55:33;;;;;;;;;;;;;;;22.82;29.19;97504.13;4980851;28;1198;-76
2023/07/01 06:58:02;;;;;;;;;;;;;;;22.73;29.32;97504.06;4996938;28;1903;-75
2023/07/01 07:00:28;;;;;;;;;;;;;;;22.95;29.02;97508.91;4981228;28;1221;-75
2023/07/01 07:02:54;;;;;;;;;;;;;;;22.70;29.32;97516.34;4981203;28;1175;-77
2023/07/01 07:05:19;;;;;;;;;;;;;;;22.76;29.49;97514.50;4980838;28;1092;-75
2023/07/01 07:07:45;;;;;;;;;;;;;;;22.58;29.61;97514.38;4939102;29;1063;-75
2023/07/01 07:10:11;;;;;;;;;;;;;;;22.62;29.33;97515.03;4907165;29;1121;-76
2023/07/01 07:12:36;;;;;;;;;;;;;;;22.57;29.52;97518.47;4939253;29;937;-75
2023/07/01 07:15:02;;;;;;;;;;;;;;;22.42;29.83;97514.59;4923250;29;987;-75
2023/07/01 07:17:27;;;;;;;;;;;;;;;22.63;29.66;97511.72;4922951;29;1906;-76
2023/07/01 07:19:53;;;;;;;;;;;;;;;22.52;29.84;97510.56;4906877;29;1234;-75
2023/07/01 07:22:19;;;;;;;;;;;;;;;22.61;29.67;97519.13;4905951;29;1100;-76
2023/07/01 07:24:44;;;;;;;;;;;;;;;22.80;29.36;97520.03;4941527;29;1169;-75
2023/07/01 07:27:10;;;;;;;;;;;;;;;22.86;29.19;97513.28;4956485;28;910;-75
2023/07/01 07:29:35;;;;;;;;;;;;;;;22.69;29.50;97517.63;4976674;28;909;-75
2023/07/01 07:32:02;;;;;;;;;;;;;;;22.45;30.00;97510.84;4976968;28;940;-75
2023/07/01 07:34:28;;;;;;;;;;;;;;;22.61;29.70;97519.13;4976764;28;949;-76
2023/07/01 07:36:54;;;;;;;;;;;;;;;22.65;29.60;97519.78;4977016;28;1902;-76
2023/07/01 07:39:19;;;;;;;;;;;;;;;22.52;29.81;97510.56;4976600;28;1060;-76
2023/07/01 07:41:45;;;;;;;;;;;;;;;22.52;29.93;97516.22;4976417;28;1143;-76
2023/07/01 07:44:10;;;;;;;;;;;;;;;22.73;29.45;97508.94;4980362;28;912;-75
2023/07/01 07:46:37;;;;;;;;;;;;;;;22.91;29.19;97508.28;4983228;28;922;-76
2023/07/01 07:49:03;;;;;;;;;;;;;;;22.79;29.33;97513.53;4999349;28;1150;-75
2023/07/01 07:51:28;;;;;;;;;;;;;;;22.73;29.49;97520.28;5017243;28;1219;-75
2023/07/01 07:53:54;;;;;;;;;;;;;;;22.96;29.02;97510.53;5022159;28;1277;-76
2023/07/01 07:56:19;;;;;;;;;;;;;;;22.75;29.62;97501.56;5010574;28;1274;-76
2023/07/01 07:58:45;;;;;;;;;;;;;;;22.71;29.45;97494.47;5018186;28;1977;-75
2023/07/01 08:01:10;;;;;;;;;;;;;;;22.77;29.36;97493.38;5009656;28;1270;-75
2023/07/01 08:03:36;;;;;;;;;;;;;;;22.70;29.53;97499.34;5024608;28;1273;-75
2023/07/01 08:06:02;;;;;;;;;;;;;;;22.90;29.19;97495.34;5023970;28;1203;-76
2023/07/01 08:08:27;;;;;;;;;;;;;;;22.86;29.39;97496.25;4993523;28;1244;-76
2023/07/01 08:10:53;;;;;;;;;;;;;;;22.84;29.27;97490.25;5025215;28;1242;-76
2023/07/01 08:13:18;;;;;;;;;;;;;;;22.61;29.90;97485.09;5016172;28;1365;-76
2023/07/01 08:15:44;;;;;;;;;;;;;;;22.54;30.13;97494.69;5026878;28;1301;-76
2023/07/01 08:18:09;;;;;;;;;;;;;;;22.68;29.58;97479.16;5010604;28;1906;-76
2023/07/01 08:20:35;;;;;;;;;;;;;;;22.75;29.83;97495.91;5037386;28;797;-77
2023/07/01 08:23:02;;;;;;;;;;;;;;;22.73;29.79;97494.78;5019517;28;1038;-76
2023/07/01 08:25:27;;;;;;;;;;;;;;;22.70;29.93;97493.66;5037169;28;841;-77
2023/07/01 08:27:53;;;;;;;;;;;;;;;22.73;29.80;97492.72;5035989;28;803;-76
2023/07/01 08:30:19;;;;;;;;;;;;;;;22.52;30.14;97499.22;5037077;28;800;-76
2023/07/01 08:32:44;;;;;;;;;;;;;;;22.55;30.14;97495.47;5037059;28;853;-77
2023/07/01 08:35:10;;;;;;;;;;;;;;;22.64;30.04;97498.38;5036809;28;750;-76
2023/07/01 08:37:35;;;;;;;;;;;;;;;22.68;29.98;97493.31;5036901;28;1975;-75
2023/07/01 08:40:01;;;;;;;;;;;;;;;22.73;29.70;97495.56;5036674;28;834;-76
2023/07/01 08:42:27;;;;;;;;;;;;;;;22.84;29.47;97498.75;5036891;28;963;-76
2023/07/01 08:44:53;;;;;;;;;;;;;;;22.61;29.89;97490.78;5014488;28;872;-76
2023/07/01 08:47:18;;;;;;;;;;;;;;;22.69;29.86;97480.75;4998482;28;864;-76
2023/07/01 08:49:44;;;;;;;;;;;;;;;22.72;30.05;97479.81;4982018;28;1331;-77
2023/07/01 08:52:10;;;;;;;;;;;;;;;22.67;30.07;97483.25;5014534;28;902;-76
2023/07/01 08:54:36;;;;;;;;;;;;;;;22.57;30.36;97495.78;4998624;28;763;-76
2023/07/01 08:57:01;;;;;;;;;;;;;;;22.62;30.13;97481.78;4998995;28;1902;-76
2023/07/01 08:59:27;;;;;;;;;;;;;;;22.62;30.02;97475.34;5015309;28;770;-76
2023/07/01 09:01:52;;;;;;;;;;;;;;;22.87;29.97;97475.16;4998766;28;855;-76
2023/07/01 09:04:18;;;;;;;;;;;;;;;22.77;29.98;97470.69;4998511;28;896;-76
2023/07/01 09:06:43;;;;;;;;;;;;;;;22.79;29.95;97473.84;5015195;28;1023;-75
2023/07/01 09:09:09;;;;;;;;;;;;;;;22.62;30.14;97478.16;5014657;28;1094;-76
2023/07/01 09:11:35;;;;;;;;;;;;;;;22.80;29.68;97475.44;5015226;28;1030;-75
2023/07/01 09:14:02;;;;;;;;;;;;;;;22.79;29.89;97476.66;5014635;28;959;-75
2023/07/01 09:16:32;;;;;;;;;;;;;;;22.98;29.55;97482.47;5025867;28;1981;-76
2023/07/01 09:19:04;;;;;;;;;;;;;;;22.75;29.91;97484.56;5036507;28;866;-76
2023/07/01 09:21:32;;;;;;;;;;;;;;;22.97;29.63;97473.16;5019333;28;844;-75
2023/07/01 09:23:58;;;;;;;;;;;;;;;22.92;29.55;97470.16;5035625;28;860;-76
2023/07/01 09:26:23;;;;;;;;;;;;;;;22.73;30.04;97475.69;5037208;28;827;-76
2023/07/01 09:28:53;;;;;;;;;;;;;;;22.76;29.76;97468.31;5035709;28;1158;-77
2023/07/01 09:31:19;;;;;;;;;;;;;;;22.72;30.16;97468.47;5036941;28;902;-75
2023/07/01 09:33:56;;;;;;;;;;;;;;;22.85;29.77;97469.16;5036827;28;914;-76
2023/07/01 09:36:25;;;;;;;;;;;;;;;23.09;29.50;97468.63;5037071;28;844;-75
2023/07/01 09:38:51;;;;;;;;;;;;;;;22.89;29.71;97466.19;5018873;28;1979;-76
2023/07/01 09:41:17;;;;;;;;;;;;;;;22.99;29.64;97464.97;5036639;28;1075;-76
2023/07/01 09:43:43;;;;;;;;;;;;;;;22.71;30.07;97466.88;5036141;28;726;-76
2023/07/01 09:46:09;;;;;;;;;;;;;;;22.82;29.99;97461.56;5035164;28;826;-76
2023/07/01 09:48:34;;;;;;;;;;;;;;;22.76;30.06;97460.59;5035503;28;794;-76
2023/07/01 09:51:03;;;;;;;;;;;;;;;22.89;29.65;97466.19;5018326;28;1063;-76
2023/07/01 09:53:35;;;;;;;;;;;;;;;22.93;29.89;97463.22;5036042;28;762;-76
2023/07/01 09:56:07;;;;;;;;;;;;;;;22.96;29.54;97465.13;5035768;28;833;-76
2023/07/01 09:58:33;;;;;;;;;;;;;;;23.11;29.35;97461.25;4980982;28;1977;-77
2023/07/01 10:00:58;;;;;;;;;;;;;;;22.74;29.84;97456.63;4997409;28;873;-76
2023/07/01 10:03:25;;;;;;;;;;;;;;;22.80;29.79;97455.59;4982158;28;1194;-76
2023/07/01 10:05:51;;;;;;;;;;;;;;;23.06;29.73;97452.56;5001256;28;953;-76
2023/07/01 10:08:17;;;;;;;;;;;;;;;23.00;29.72;97460.06;5000738;28;1070;-75
2023/07/01 10:10:42;;;;;;;;;;;;;;;23.08;29.57;97456.50;5017150;28;926;-76
2023/07/01 10:13:08;;;;;;;;;;;;;;;22.95;29.55;97452.19;5000798;28;815;-76
2023/07/01 10:15:33;;;;;;;;;;;;;;;22.74;29.85;97451.78;4995873;28;1488;-76
2023/07/01 10:17:59;;;;;;;;;;;;;;;22.66;30.06;97447.63;4997690;28;1976;-76
2023/07/01 10:20:26;;;;;;;;;;;;;;;22.74;30.12;97450.97;4981224;28;770;-76
2023/07/01 10:22:52;;;;;;;;;;;;;;;22.95;29.84;97452.19;4981283;28;724;-77
2023/07/01 10:25:21;;;;;;;;;;;;;;;22.81;30.04;97442.97;4981043;28;879;-76
2023/07/01 10:27:47;;;;;;;;;;;;;;;22.80;30.11;97441.41;4978704;28;822;-76
2023/07/01 10:30:12;;;;;;;;;;;;;;;22.96;29.63;97453.78;5009917;28;1066;-77
2023/07/01 10:32:38;;;;;;;;;;;;;;;22.78;30.16;97448.78;5018300;28;810;-77
2023/07/01 10:35:03;;;;;;;;;;;;;;;22.68;30.18;97445.13;4996572;28;898;-77
2023/07/01 10:37:29;;;;;;;;;;;;;;;22.71;30.25;97449.09;4997287;28;1977;-77
2023/07/01 10:39:55;;;;;;;;;;;;;;;22.85;29.92;97443.63;4996746;28;906;-76
2023/07/01 10:42:34;;;;;;;;;;;;;;;22.65;30.38;97434.72;4997374;28;863;-77
2023/07/01 10:45:11;;;;;;;;;;;;;;;22.66;30.45;97424.94;4961744;28;859;-77
2023/07/01 10:47:44;;;;;;;;;;;;;;;22.99;29.69;97433.75;4978104;28;851;-76
2023/07/01 10:50:16;;;;;;;;;;;;;;;23.08;29.58;97430.94;4962002;28;881;-76
2023/07/01 10:52:57;;;;;;;;;;;;;;;22.99;29.70;97441.47;4961226;28;986;-76
2023/07/01 10:55:44;;;;;;;;;;;;;;;22.68;30.05;97442.28;4977239;28;794;-76
2023/07/01 10:58:29;;;;;;;;;;;;;;;22.75;30.10;97427.03;4961390;28;1995;-76
2023/07/01 11:00:55;;;;;;;;;;;;;;;22.92;29.89;97419.09;4977665;28;866;-76
2023/07/01 11:03:36;;;;;;;;;;;;;;;22.73;30.23;97424.66;4960748;28;831;-76
2023/07/01 11:06:08;;;;;;;;;;;;;;;22.53;30.70;97418.56;4960916;28;843;-76
2023/07/01 11:08:34;;;;;;;;;;;;;;;22.83;30.05;97426.28;4976852;28;1066;-76
2023/07/01 11:11:00;;;;;;;;;;;;;;;22.68;30.39;97411.09;4961220;28;780;-76
2023/07/01 11:13:26;;;;;;;;;;;;;;;22.80;30.15;97418.72;4977810;28;758;-76
2023/07/01 11:16:04;;;;;;;;;;;;;;;22.87;29.98;97412.72;4993944;28;943;-76
2023/07/01 11:18:40;;;;;;;;;;;;;;;22.93;29.83;97412.94;5000358;28;1906;-76
2023/07/01 11:21:05;;;;;;;;;;;;;;;22.98;29.75;97411.53;5017243;28;848;-75
2023/07/01 11:23:31;;;;;;;;;;;;;;;22.92;29.83;97413.41;5018019;28;858;-75
2023/07/01 11:25:56;;;;;;;;;;;;;;;22.92;30.03;97410.56;5018319;28;770;-76
2023/07/01 11:28:34;;;;;;;;;;;;;;;22.67;30.31;97415.19;5016714;28;771;-76
2023/07/01 11:31:11;;;;;;;;;;;;;;;22.85;30.11;97415.25;5000771;28;1297;-76
2023/07/01 11:33:36;;;;;;;;;;;;;;;22.73;30.19;97418.97;5016810;28;778;-75
2023/07/01 11:36:02;;;;;;;;;;;;;;;22.81;30.10;97420.28;5017615;28;1108;-76
2023/07/01 11:38:29;;;;;;;;;;;;;;;22.86;29.89;97410.38;5016148;28;1910;-75
2023/07/01 11:40:55;;;;;;;;;;;;;;;22.69;30.45;97417.53;5000310;28;2033;-76
2023/07/01 11:43:21;;;;;;;;;;;;;;;22.85;30.06;97408.81;5017328;28;787;-76
2023/07/01 11:45:48;;;;;;;;;;;;;;;22.66;30.39;97416.44;4995698;28;987;-76
2023/07/01 11:48:13;;;;;;;;;;;;;;;22.62;30.47;97401.63;4995688;28;834;-76
2023/07/01 11:50:51;;;;;;;;;;;;;;;22.63;30.34;97411.69;4995615;28;1399;-76
2023/07/01 11:53:17;;;;;;;;;;;;;;;22.61;30.61;97412.16;4995501;28;924;-76
2023/07/01 11:55:42;;;;;;;;;;;;;;;22.91;29.85;97400.50;4957077;29;965;-76
2023/07/01 11:58:27;;;;;;;;;;;;;;;22.88;30.11;97405.81;4957804;29;1906;-76
2023/07/01 12:00:52;;;;;;;;;;;;;;;22.76;30.15;97395.38;4957506;29;1007;-76
2023/07/01 12:03:18;;;;;;;;;;;;;;;22.84;29.88;97390.97;4957360;29;911;-76
2023/07/01 12:05:44;;;;;;;;;;;;;;;22.77;29.81;97391.28;4957335;29;1016;-76
2023/07/01 12:08:09;;;;;;;;;;;;;;;22.88;29.81;97388.81;4957351;29;1403;-76
2023/07/01 12:10:35;;;;;;;;;;;;;;;22.86;30.05;97391.31;4957768;29;1236;-77
2023/07/01 12:13:00;;;;;;;;;;;;;;;22.63;30.08;97386.16;4957338;29;897;-76
2023/07/01 12:15:26;;;;;;;;;;;;;;;22.81;29.74;97374.91;4957317;29;920;-76
2023/07/01 12:17:53;;;;;;;;;;;;;;;23.13;29.63;97372.78;4960173;28;1959;-76
2023/07/01 12:20:20;;;;;;;;;;;;;;;22.76;29.89;97378.34;4944588;28;992;-76
2023/07/01 12:22:45;;;;;;;;;;;;;;;22.92;29.71;97379.38;4944513;28;1168;-76
2023/07/01 12:25:11;;;;;;;;;;;;;;;22.83;30.04;97372.38;4928311;28;1374;-77
2023/07/01 12:27:36;;;;;;;;;;;;;;;22.88;30.01;97374.63;4977511;28;892;-76
2023/07/01 12:30:04;;;;;;;;;;;;;;;22.95;29.41;97362.22;4975951;28;975;-77
2023/07/01 12:32:29;;;;;;;;;;;;;;;22.90;29.70;97364.84;4976067;28;910;-76
2023/07/01 12:34:56;;;;;;;;;;;;;;;22.79;29.71;97363.22;4975978;28;1077;-76
2023/07/01 12:37:22;;;;;;;;;;;;;;;22.76;30.03;97363.38;4976179;28;1978;-75
2023/07/01 12:39:50;;;;;;;;;;;;;;;22.85;30.08;97358.53;4975854;28;965;-75
2023/07/01 12:42:16;;;;;;;;;;;;;;;22.96;29.68;97363.00;4976064;28;974;-76
2023/07/01 12:44:43;;;;;;;;;;;;;;;22.94;29.65;97356.97;4959751;28;1030;-76
2023/07/01 12:47:08;;;;;;;;;;;;;;;22.83;29.86;97363.88;4976333;28;1027;-76
2023/07/01 12:49:34;;;;;;;;;;;;;;;22.88;30.04;97368.16;4959633;28;915;-75
2023/07/01 12:51:59;;;;;;;;;;;;;;;22.60;30.44;97361.59;4976176;28;949;-75
2023/07/01 12:54:25;;;;;;;;;;;;;;;22.74;29.90;97352.53;4965198;28;1172;-76
2023/07/01 12:56:50;;;;;;;;;;;;;;;22.92;29.80;97362.34;4966562;28;1989;-76
2023/07/01 12:59:15;;;;;;;;;;;;;;;22.92;29.77;97351.00;4998922;28;1245;-75